Time;durP1;ratioP1;P1;durP2;ratioP2;P2;SDS_P1;SDS_P2;PMS_P1;PMS_P2;Temp;Humidity;BMP_temperature;BMP_pressure;BME280_temperature;BME280_humidity;BME280_pressure;Samples;Min_cycle;Max_cycle;Signal;HPM_P1;HPM_P2
2024/01/03 00:00:56;;;;;;;1.40;0.70;;;10.70;99.90;;;;;;5042169;28;20921;-72
2024/01/03 00:03:42;;;;;;;1.80;1.13;;;10.70;99.90;;;;;;5037682;28;20445;-72
2024/01/03 00:06:33;;;;;;;2.20;1.30;;;10.70;99.90;;;;;;5033564;28;20438;-72
2024/01/03 00:09:20;;;;;;;1.70;1.10;;;10.80;99.90;;;;;;5036355;28;20443;-72
2024/01/03 00:12:08;;;;;;;1.83;1.00;;;10.80;99.90;;;;;;5037350;28;20455;-72
2024/01/03 00:14:53;;;;;;;2.73;1.03;;;10.80;99.90;;;;;;5032204;28;20542;-72
2024/01/03 00:17:44;;;;;;;1.80;1.00;;;10.90;99.90;;;;;;5037945;28;20450;-73
2024/01/03 00:20:29;;;;;;;1.43;0.80;;;10.90;99.90;;;;;;5040964;28;20523;-73
2024/01/03 00:23:16;;;;;;;2.33;1.00;;;10.90;99.90;;;;;;5040141;28;20569;-73
2024/01/03 00:26:03;;;;;;;2.23;0.90;;;10.90;99.90;;;;;;5037545;28;20473;-73
2024/01/03 00:28:49;;;;;;;2.33;0.83;;;10.90;99.90;;;;;;5037532;28;20815;-74
2024/01/03 00:31:41;;;;;;;1.90;0.83;;;11.00;99.90;;;;;;5037853;28;20978;-74
2024/01/03 00:34:39;;;;;;;1.80;0.77;;;11.00;99.90;;;;;;5036563;28;20545;-72
2024/01/03 00:37:29;;;;;;;1.60;0.63;;;11.00;99.90;;;;;;5041740;28;20451;-74
2024/01/03 00:40:51;;;;;;;1.40;0.77;;;11.00;99.90;;;;;;5032632;28;20513;-72
2024/01/03 00:43:39;;;;;;;1.70;0.83;;;11.00;99.90;;;;;;5039871;28;20840;-72
2024/01/03 00:46:24;;;;;;;2.00;0.93;;;11.00;99.90;;;;;;5041138;28;20542;-72
2024/01/03 00:49:11;;;;;;;3.40;0.70;;;11.00;99.90;;;;;;5035619;28;20981;-72
2024/01/03 00:51:57;;;;;;;1.57;0.63;;;10.90;99.90;;;;;;5033829;28;20489;-72
2024/01/03 00:54:43;;;;;;;1.87;0.80;;;10.90;99.90;;;;;;5041243;28;20476;-73
2024/01/03 00:57:29;;;;;;;1.30;0.70;;;10.90;99.90;;;;;;5036018;28;20574;-72
2024/01/03 01:00:17;;;;;;;1.50;0.70;;;10.80;99.90;;;;;;5042739;28;20470;-72
2024/01/03 01:03:03;;;;;;;4.20;0.80;;;10.70;99.90;;;;;;5029487;28;20483;-72
2024/01/03 01:05:48;;;;;;;2.17;0.80;;;10.50;99.90;;;;;;5040514;28;20637;-72
2024/01/03 01:08:34;;;;;;;1.70;0.70;;;10.50;99.90;;;;;;5030030;28;20535;-73
2024/01/03 01:11:19;;;;;;;2.80;0.70;;;10.50;99.90;;;;;;5037332;28;20442;-73
2024/01/03 01:14:05;;;;;;;1.30;0.63;;;10.40;99.90;;;;;;5035275;28;20458;-72
2024/01/03 01:16:52;;;;;;;1.47;0.83;;;10.40;99.90;;;;;;5036103;28;20444;-72
2024/01/03 01:19:37;;;;;;;3.47;1.00;;;10.30;99.90;;;;;;5039647;28;20453;-73
2024/01/03 01:22:25;;;;;;;3.30;1.40;;;10.20;99.90;;;;;;5044679;28;20470;-73
2024/01/03 01:25:11;;;;;;;3.00;1.00;;;10.30;99.90;;;;;;5034961;28;20585;-72
2024/01/03 01:27:57;;;;;;;1.67;1.00;;;10.20;99.90;;;;;;5024031;28;20449;-73
2024/01/03 01:30:42;;;;;;;4.53;1.23;;;10.20;99.90;;;;;;5031991;28;20462;-72
2024/01/03 01:33:29;;;;;;;2.63;0.90;;;10.10;99.90;;;;;;5029792;28;20545;-72
2024/01/03 01:36:15;;;;;;;6.40;2.20;;;10.10;99.90;;;;;;5039769;28;20503;-72
2024/01/03 01:39:01;;;;;;;4.20;1.03;;;10.00;99.90;;;;;;5027950;28;20462;-72
2024/01/03 01:41:46;;;;;;;2.73;0.93;;;10.10;99.90;;;;;;5037710;28;20452;-73
2024/01/03 01:44:32;;;;;;;1.97;0.73;;;10.10;99.90;;;;;;5032716;28;20450;-72
2024/01/03 01:47:18;;;;;;;5.30;1.13;;;10.10;99.90;;;;;;5031868;28;20829;-72
2024/01/03 01:50:07;;;;;;;1.70;0.70;;;10.10;99.90;;;;;;5033194;28;20447;-72
2024/01/03 01:52:53;;;;;;;3.73;1.03;;;10.10;99.90;;;;;;5039493;28;20429;-72
2024/01/03 01:55:40;;;;;;;3.40;0.80;;;10.00;99.90;;;;;;5031430;28;21008;-72
2024/01/03 01:58:26;;;;;;;2.10;0.87;;;10.10;99.90;;;;;;5031744;28;20782;-72
2024/01/03 02:01:11;;;;;;;2.40;1.10;;;10.10;99.90;;;;;;5030459;28;20595;-73
2024/01/03 02:03:57;;;;;;;2.23;0.77;;;10.10;99.90;;;;;;5030876;28;20968;-72
2024/01/03 02:06:44;;;;;;;2.30;0.80;;;10.10;99.90;;;;;;5035492;28;20458;-75
2024/01/03 02:09:30;;;;;;;4.07;1.03;;;10.10;99.90;;;;;;5028701;28;20521;-73
2024/01/03 02:12:15;;;;;;;3.80;1.00;;;10.10;99.90;;;;;;5039250;28;20465;-75
2024/01/03 02:15:01;;;;;;;4.73;1.20;;;10.10;99.90;;;;;;5028319;28;20468;-73
2024/01/03 02:17:48;;;;;;;2.17;1.23;;;10.10;99.90;;;;;;5037224;28;20491;-72
2024/01/03 02:20:34;;;;;;;5.73;1.10;;;10.10;99.90;;;;;;5030463;28;20829;-74
2024/01/03 02:23:21;;;;;;;5.63;1.40;;;10.10;99.90;;;;;;5034510;28;20474;-74
2024/01/03 02:26:06;;;;;;;3.60;1.40;;;10.10;99.90;;;;;;5029740;28;21039;-73
2024/01/03 02:28:52;;;;;;;3.63;1.20;;;10.20;99.90;;;;;;5034929;28;20865;-73
2024/01/03 02:31:38;;;;;;;2.80;1.07;;;10.30;99.90;;;;;;5030539;28;20676;-74
2024/01/03 02:34:23;;;;;;;5.70;1.20;;;10.20;99.90;;;;;;5031589;28;20463;-73
2024/01/03 02:37:10;;;;;;;2.90;1.70;;;10.30;99.90;;;;;;5021685;28;20806;-73
2024/01/03 02:39:57;;;;;;;3.73;1.37;;;10.30;99.90;;;;;;5023976;28;20442;-73
2024/01/03 02:42:42;;;;;;;2.37;1.10;;;10.20;99.90;;;;;;5034668;28;20482;-73
2024/01/03 02:45:28;;;;;;;5.50;1.50;;;10.20;99.90;;;;;;5030402;28;20474;-74
2024/01/03 02:48:14;;;;;;;14.23;1.90;;;10.20;99.90;;;;;;5030233;28;20859;-72
2024/01/03 02:51:00;;;;;;;8.60;1.50;;;10.20;99.90;;;;;;5020946;28;20452;-73
2024/01/03 02:53:46;;;;;;;4.77;1.60;;;10.20;99.90;;;;;;5030908;28;20451;-76
2024/01/03 02:56:39;;;;;;;3.10;1.13;;;10.20;99.90;;;;;;5034958;28;20451;-75
2024/01/03 02:59:25;;;;;;;5.43;1.67;;;10.20;99.90;;;;;;5037927;28;20949;-73
2024/01/03 03:02:11;;;;;;;6.73;1.43;;;10.20;99.90;;;;;;5032878;28;20445;-73
2024/01/03 03:04:57;;;;;;;4.43;1.63;;;10.20;99.90;;;;;;5039566;28;20516;-75
2024/01/03 03:07:42;;;;;;;7.00;1.43;;;10.10;99.90;;;;;;5033932;28;20453;-72
2024/01/03 03:10:28;;;;;;;6.67;2.17;;;10.10;99.90;;;;;;5035315;28;20907;-72
2024/01/03 03:13:16;;;;;;;6.03;1.40;;;10.20;99.90;;;;;;5031197;28;20808;-73
2024/01/03 03:16:02;;;;;;;6.27;1.50;;;10.10;99.90;;;;;;5037885;28;20461;-74
2024/01/03 03:18:47;;;;;;;3.20;1.37;;;10.10;99.90;;;;;;5030547;28;20454;-74
2024/01/03 03:21:33;;;;;;;4.73;1.40;;;10.10;99.90;;;;;;5032756;28;20795;-73
2024/01/03 03:24:19;;;;;;;7.87;1.53;;;10.10;99.90;;;;;;5037072;28;20474;-74
2024/01/03 03:27:05;;;;;;;7.67;1.60;;;10.10;99.90;;;;;;5035658;28;20438;-73
2024/01/03 03:29:53;;;;;;;12.10;1.90;;;10.10;99.90;;;;;;5033150;28;20446;-74
2024/01/03 03:32:38;;;;;;;9.13;1.70;;;10.10;99.90;;;;;;5036624;28;20802;-73
2024/01/03 03:35:24;;;;;;;3.20;1.40;;;10.10;99.90;;;;;;5024739;28;20471;-76
2024/01/03 03:38:09;;;;;;;7.70;1.50;;;10.10;99.90;;;;;;5028199;28;20533;-74
2024/01/03 03:40:55;;;;;;;6.07;2.10;;;10.10;99.90;;;;;;5023808;28;20454;-74
2024/01/03 03:43:41;;;;;;;3.90;1.33;;;10.00;99.90;;;;;;5031785;28;20841;-73
2024/01/03 03:46:28;;;;;;;3.70;1.40;;;10.10;99.90;;;;;;5037767;28;20433;-73
2024/01/03 03:49:14;;;;;;;3.13;1.33;;;10.10;99.90;;;;;;5039332;28;20437;-74
2024/01/03 03:51:59;;;;;;;2.40;1.10;;;10.10;99.90;;;;;;5026842;28;20443;-73
2024/01/03 03:54:45;;;;;;;4.00;1.37;;;10.10;99.90;;;;;;5031766;28;20474;-74
2024/01/03 03:57:31;;;;;;;5.10;1.40;;;10.00;99.90;;;;;;5030468;28;20459;-73
2024/01/03 04:00:17;;;;;;;3.30;1.30;;;9.90;99.90;;;;;;5023310;28;20863;-74
2024/01/03 04:03:07;;;;;;;3.83;1.00;;;9.90;99.90;;;;;;5028875;28;20489;-74
2024/01/03 04:05:53;;;;;;;9.23;1.87;;;9.90;99.90;;;;;;5036502;28;20470;-74
2024/01/03 04:08:38;;;;;;;5.47;1.40;;;9.90;99.90;;;;;;5034459;28;21086;-75
2024/01/03 04:11:24;;;;;;;4.50;1.50;;;9.80;99.90;;;;;;5042109;28;20451;-74
2024/01/03 04:14:10;;;;;;;4.67;1.10;;;9.90;99.90;;;;;;5041508;28;20593;-74
2024/01/03 04:16:55;;;;;;;2.97;1.37;;;9.80;99.90;;;;;;5032260;28;20455;-74
2024/01/03 04:19:43;;;;;;;6.23;1.50;;;9.90;99.90;;;;;;5034416;28;20487;-73
2024/01/03 04:22:28;;;;;;;3.83;1.20;;;9.90;99.90;;;;;;5036477;28;20433;-74
2024/01/03 04:25:14;;;;;;;7.73;1.53;;;9.90;99.90;;;;;;5027078;28;20504;-73
2024/01/03 04:28:00;;;;;;;6.53;1.87;;;10.00;99.90;;;;;;5018970;28;20439;-73
2024/01/03 04:30:46;;;;;;;10.50;2.03;;;10.00;99.90;;;;;;5032785;28;21012;-73
2024/01/03 04:33:32;;;;;;;3.97;1.57;;;9.90;99.90;;;;;;5042594;28;20439;-73
2024/01/03 04:36:19;;;;;;;12.10;1.57;;;9.90;99.90;;;;;;5033506;28;20455;-73
2024/01/03 04:39:04;;;;;;;8.47;2.17;;;10.00;99.90;;;;;;5027560;28;20454;-73
2024/01/03 04:41:50;;;;;;;7.00;2.40;;;10.00;99.90;;;;;;5040780;28;20477;-73
2024/01/03 04:44:36;;;;;;;9.33;2.13;;;10.10;99.90;;;;;;5035687;28;20479;-73
2024/01/03 04:47:22;;;;;;;9.47;2.00;;;10.10;99.90;;;;;;5037202;28;20450;-72
2024/01/03 04:50:09;;;;;;;5.77;2.23;;;10.10;99.90;;;;;;5026808;28;20592;-73
2024/01/03 04:52:56;;;;;;;13.93;2.47;;;10.10;99.90;;;;;;5034331;28;20484;-75
2024/01/03 04:55:41;;;;;;;7.90;1.77;;;10.10;99.90;;;;;;5037522;28;20527;-74
2024/01/03 04:58:27;;;;;;;7.10;1.57;;;10.10;99.90;;;;;;5033938;28;20451;-75
2024/01/03 05:01:12;;;;;;;7.90;2.80;;;10.20;99.90;;;;;;5029167;28;20445;-75
2024/01/03 05:03:58;;;;;;;10.07;1.50;;;10.20;99.90;;;;;;5043009;28;20591;-74
2024/01/03 05:06:44;;;;;;;10.27;2.60;;;10.20;99.90;;;;;;5043056;28;20453;-73
2024/01/03 05:09:34;;;;;;;6.40;1.83;;;10.20;99.90;;;;;;5035030;28;20536;-75
2024/01/03 05:12:20;;;;;;;6.77;1.77;;;10.20;99.90;;;;;;5023285;28;20494;-74
2024/01/03 05:15:06;;;;;;;6.17;1.93;;;10.30;99.90;;;;;;5037437;28;20581;-73
2024/01/03 05:17:52;;;;;;;7.90;1.90;;;10.20;99.90;;;;;;5031118;28;20449;-75
2024/01/03 05:20:37;;;;;;;8.43;1.87;;;10.20;99.90;;;;;;5034033;28;20446;-74
2024/01/03 05:23:23;;;;;;;8.70;1.87;;;10.10;99.90;;;;;;5028665;28;20432;-73
2024/01/03 05:26:10;;;;;;;7.13;1.50;;;10.10;99.90;;;;;;5038625;28;20444;-73
2024/01/03 05:28:55;;;;;;;5.57;1.80;;;10.10;99.90;;;;;;5035259;28;20451;-75
2024/01/03 05:31:41;;;;;;;3.00;1.30;;;10.10;99.90;;;;;;5042989;28;20463;-74
2024/01/03 05:34:27;;;;;;;6.80;1.67;;;10.10;99.90;;;;;;5029586;28;20463;-74
2024/01/03 05:37:13;;;;;;;7.63;1.93;;;10.10;99.90;;;;;;5039241;28;20643;-74
2024/01/03 05:39:59;;;;;;;8.90;2.40;;;10.20;99.90;;;;;;5031491;28;20455;-73
2024/01/03 05:42:46;;;;;;;7.20;1.70;;;10.20;99.90;;;;;;5041099;28;20521;-74
2024/01/03 05:45:31;;;;;;;14.20;1.97;;;10.20;99.90;;;;;;5035873;28;20537;-75
2024/01/03 05:48:17;;;;;;;6.43;1.50;;;10.30;99.90;;;;;;5033974;28;20452;-73
2024/01/03 05:51:03;;;;;;;9.07;2.53;;;10.20;99.90;;;;;;5031730;28;20449;-73
2024/01/03 05:53:49;;;;;;;11.23;2.07;;;10.20;99.90;;;;;;5039840;28;20457;-73
2024/01/03 05:56:35;;;;;;;12.20;2.03;;;10.20;99.90;;;;;;5037734;28;21031;-74
2024/01/03 05:59:22;;;;;;;8.83;1.83;;;10.30;99.90;;;;;;5039584;28;20989;-74
2024/01/03 06:02:07;;;;;;;11.97;1.90;;;10.30;99.90;;;;;;5035715;28;20450;-74
2024/01/03 06:04:53;;;;;;;11.20;2.10;;;10.30;99.90;;;;;;5036421;28;20889;-74
2024/01/03 06:07:38;;;;;;;8.53;1.87;;;10.30;99.90;;;;;;5035519;28;20967;-74
2024/01/03 06:10:24;;;;;;;7.43;1.50;;;10.20;99.90;;;;;;5032274;28;20444;-72
2024/01/03 06:13:11;;;;;;;4.27;2.07;;;10.20;99.90;;;;;;5024799;28;20507;-73
2024/01/03 06:15:57;;;;;;;7.50;2.20;;;10.20;99.90;;;;;;5035268;28;20465;-74
2024/01/03 06:18:43;;;;;;;11.07;2.53;;;10.20;99.90;;;;;;5038588;28;20577;-74
2024/01/03 06:21:29;;;;;;;7.10;1.60;;;10.30;99.90;;;;;;5036951;28;20466;-74
2024/01/03 06:24:14;;;;;;;8.50;1.80;;;10.20;99.90;;;;;;5038134;28;20477;-74
2024/01/03 06:27:00;;;;;;;8.50;2.10;;;10.20;99.90;;;;;;5036582;28;20443;-74
2024/01/03 06:29:46;;;;;;;9.07;2.10;;;10.20;99.90;;;;;;5036767;28;20462;-74
2024/01/03 06:32:33;;;;;;;5.87;1.67;;;10.20;99.90;;;;;;5028597;28;20554;-74
2024/01/03 06:35:18;;;;;;;14.30;2.57;;;10.20;99.90;;;;;;5029643;28;20458;-74
2024/01/03 06:38:04;;;;;;;6.90;1.87;;;10.20;99.90;;;;;;5030662;28;20573;-72
2024/01/03 06:40:51;;;;;;;8.80;1.73;;;10.30;99.90;;;;;;5037823;28;20454;-73
2024/01/03 06:43:37;;;;;;;11.40;2.50;;;10.30;99.90;;;;;;5041928;28;20475;-74
2024/01/03 06:46:26;;;;;;;12.17;1.93;;;10.20;99.90;;;;;;5033822;28;20466;-74
2024/01/03 06:49:13;;;;;;;4.70;1.63;;;10.30;99.90;;;;;;5030213;28;20444;-75
2024/01/03 06:51:58;;;;;;;7.13;1.50;;;10.30;99.90;;;;;;5029921;28;20857;-74
2024/01/03 06:54:44;;;;;;;4.60;1.40;;;10.30;99.90;;;;;;5035444;28;20516;-74
2024/01/03 06:57:30;;;;;;;9.67;2.27;;;10.30;99.90;;;;;;5031006;28;20929;-75
2024/01/03 07:00:16;;;;;;;5.80;1.73;;;10.30;99.90;;;;;;5030166;28;20510;-74
2024/01/03 07:03:02;;;;;;;14.27;2.40;;;10.30;99.90;;;;;;5036156;28;20454;-75
2024/01/03 07:05:49;;;;;;;6.70;1.97;;;10.30;99.90;;;;;;5036696;28;20565;-74
2024/01/03 07:08:34;;;;;;;8.80;2.23;;;10.30;99.90;;;;;;5038755;28;20443;-74
2024/01/03 07:11:20;;;;;;;12.03;2.60;;;10.30;99.90;;;;;;5034487;28;20466;-74
2024/01/03 07:14:06;;;;;;;3.40;1.10;;;10.30;99.90;;;;;;5037532;28;21116;-74
2024/01/03 07:16:51;;;;;;;7.13;2.07;;;10.30;99.90;;;;;;5041120;28;20445;-74
2024/01/03 07:19:37;;;;;;;5.43;1.60;;;10.40;99.90;;;;;;5032030;28;20529;-74
2024/01/03 07:22:24;;;;;;;10.23;2.10;;;10.30;99.90;;;;;;5036446;28;20588;-73
2024/01/03 07:25:10;;;;;;;9.73;1.70;;;10.30;99.90;;;;;;5027573;28;20499;-73
2024/01/03 07:27:55;;;;;;;8.63;1.80;;;10.40;99.90;;;;;;5026249;28;20461;-73
2024/01/03 07:30:41;;;;;;;12.73;2.97;;;10.30;99.90;;;;;;5034594;28;20451;-74
2024/01/03 07:33:27;;;;;;;9.80;2.40;;;10.40;99.90;;;;;;5030370;28;20444;-74
2024/01/03 07:36:12;;;;;;;9.23;2.80;;;10.40;99.90;;;;;;5047784;28;20447;-74
2024/01/03 07:39:02;;;;;;;9.90;2.77;;;10.40;99.90;;;;;;5024798;28;20514;-75
2024/01/03 07:41:48;;;;;;;10.30;1.47;;;10.40;99.90;;;;;;5043524;28;20577;-74
2024/01/03 07:44:41;;;;;;;4.63;1.60;;;10.40;99.90;;;;;;5039799;28;20585;-74
2024/01/03 07:47:26;;;;;;;5.97;1.93;;;10.40;99.90;;;;;;5037964;28;20514;-74
2024/01/03 07:50:12;;;;;;;6.40;2.07;;;10.40;99.90;;;;;;5036208;28;20597;-75
2024/01/03 07:52:58;;;;;;;6.53;1.90;;;10.40;99.90;;;;;;5027159;28;20470;-74
2024/01/03 07:55:45;;;;;;;11.70;1.70;;;10.40;99.90;;;;;;5032111;28;20554;-73
2024/01/03 07:58:30;;;;;;;7.57;1.60;;;10.40;99.90;;;;;;5028143;28;20503;-74
2024/01/03 08:01:16;;;;;;;7.57;2.00;;;10.40;99.90;;;;;;5024512;28;20542;-72
2024/01/03 08:04:04;;;;;;;12.93;2.63;;;10.30;99.90;;;;;;5035579;28;20475;-74
2024/01/03 08:06:50;;;;;;;6.07;2.20;;;10.30;99.90;;;;;;5029248;28;20540;-74
2024/01/03 08:09:37;;;;;;;12.23;2.40;;;10.30;99.90;;;;;;5031666;28;20481;-74
2024/01/03 08:12:24;;;;;;;7.20;2.20;;;10.30;99.90;;;;;;5039205;28;21035;-74
2024/01/03 08:15:10;;;;;;;6.07;2.30;;;10.30;99.90;;;;;;5030001;28;20520;-75
2024/01/03 08:17:55;;;;;;;14.53;2.20;;;10.30;99.90;;;;;;5045156;28;20421;-75
2024/01/03 08:20:41;;;;;;;7.40;2.20;;;10.30;99.90;;;;;;5046303;28;20564;-75
2024/01/03 08:23:27;;;;;;;9.80;2.30;;;10.30;99.90;;;;;;5036845;28;20448;-75
2024/01/03 08:26:13;;;;;;;8.40;2.30;;;10.30;99.90;;;;;;5027396;28;20970;-74
2024/01/03 08:29:00;;;;;;;12.73;2.50;;;10.30;99.90;;;;;;5040146;28;20442;-75
2024/01/03 08:31:48;;;;;;;11.73;2.13;;;10.40;99.90;;;;;;5042966;28;20906;-75
2024/01/03 08:34:34;;;;;;;8.53;2.43;;;10.40;99.90;;;;;;5027400;28;20624;-75
2024/01/03 08:37:20;;;;;;;6.20;1.97;;;10.40;99.90;;;;;;5036550;28;20528;-76
2024/01/03 08:40:07;;;;;;;11.50;2.53;;;10.40;99.90;;;;;;5033579;28;21018;-74
2024/01/03 08:42:52;;;;;;;6.43;1.60;;;10.40;99.90;;;;;;5040221;28;21002;-75
2024/01/03 08:45:39;;;;;;;6.77;1.83;;;10.50;99.90;;;;;;5042154;28;20540;-75
2024/01/03 08:48:25;;;;;;;10.07;2.07;;;10.40;99.90;;;;;;5026207;28;20448;-74
2024/01/03 08:51:14;;;;;;;15.67;2.30;;;10.50;99.90;;;;;;5034179;28;20451;-75
2024/01/03 08:53:59;;;;;;;11.60;2.30;;;10.50;99.90;;;;;;5031817;28;20455;-75
2024/01/03 08:56:49;;;;;;;5.63;2.23;;;10.40;99.90;;;;;;5034686;28;20700;-74
2024/01/03 08:59:35;;;;;;;6.77;1.80;;;10.50;99.90;;;;;;5030193;28;20841;-75
2024/01/03 09:02:22;;;;;;;4.83;2.20;;;10.50;99.90;;;;;;5029457;28;20446;-74
2024/01/03 09:05:09;;;;;;;3.47;1.60;;;10.50;99.90;;;;;;5027779;28;20474;-73
2024/01/03 09:07:54;;;;;;;8.40;2.33;;;10.40;99.90;;;;;;5029114;28;20448;-75
2024/01/03 09:10:40;;;;;;;7.87;1.90;;;10.40;99.90;;;;;;5035916;28;20521;-74
2024/01/03 09:13:28;;;;;;;8.57;2.53;;;10.40;99.90;;;;;;5027931;28;20975;-74
2024/01/03 09:16:14;;;;;;;7.07;1.77;;;10.40;99.90;;;;;;5025344;28;21082;-75
2024/01/03 09:19:02;;;;;;;5.47;1.73;;;10.40;99.90;;;;;;5031187;28;20447;-72
2024/01/03 09:21:49;;;;;;;7.67;2.07;;;10.40;99.90;;;;;;5027248;28;20447;-74
2024/01/03 09:24:34;;;;;;;9.40;4.33;;;10.40;99.90;;;;;;5027809;28;20475;-75
2024/01/03 09:27:20;;;;;;;8.57;2.67;;;10.40;99.90;;;;;;5028361;28;21442;-73
2024/01/03 09:30:07;;;;;;;7.97;2.90;;;10.40;99.90;;;;;;5030813;28;20639;-75
2024/01/03 09:32:53;;;;;;;9.60;3.07;;;10.40;99.90;;;;;;5028623;28;20455;-74
2024/01/03 09:35:40;;;;;;;15.67;2.27;;;10.40;99.90;;;;;;5032695;28;20461;-73
2024/01/03 09:38:26;;;;;;;8.30;1.90;;;10.40;99.90;;;;;;5027107;28;20590;-74
2024/01/03 09:41:13;;;;;;;8.47;2.30;;;10.40;99.90;;;;;;5033571;28;20455;-74
2024/01/03 09:43:59;;;;;;;15.20;2.10;;;10.40;99.90;;;;;;5041112;28;20442;-73
2024/01/03 09:46:48;;;;;;;6.40;1.40;;;10.40;99.90;;;;;;5029755;28;21179;-74
2024/01/03 09:49:35;;;;;;;6.03;3.10;;;10.40;99.90;;;;;;5024398;28;20510;-75
2024/01/03 09:52:21;;;;;;;12.60;2.50;;;10.40;99.90;;;;;;5029976;28;20447;-75
2024/01/03 09:55:09;;;;;;;7.63;2.30;;;10.40;99.90;;;;;;5027513;28;20906;-75
2024/01/03 09:57:55;;;;;;;11.43;2.17;;;10.50;99.90;;;;;;5023469;28;20467;-75
2024/01/03 10:00:40;;;;;;;7.07;1.50;;;10.50;99.90;;;;;;5037399;28;20463;-75
2024/01/03 10:03:26;;;;;;;12.40;2.50;;;10.50;99.90;;;;;;5029387;28;20462;-75
2024/01/03 10:06:13;;;;;;;7.23;1.60;;;10.50;99.90;;;;;;5035110;28;20494;-75
2024/01/03 10:09:01;;;;;;;10.03;5.57;;;10.50;99.90;;;;;;5032022;28;20454;-75
2024/01/03 10:11:51;;;;;;;6.80;3.90;;;10.50;99.90;;;;;;5027526;28;20452;-75
2024/01/03 10:14:36;;;;;;;6.83;2.00;;;10.50;99.90;;;;;;5030699;28;20558;-75
2024/01/03 10:17:22;;;;;;;11.23;3.00;;;10.60;99.90;;;;;;5033075;28;20880;-75
2024/01/03 10:20:24;;;;;;;3.00;1.17;;;10.70;99.90;;;;;;5026164;28;20669;-75
2024/01/03 10:23:11;;;;;;;7.20;2.00;;;10.70;99.90;;;;;;5029017;28;20969;-74
2024/01/03 10:25:58;;;;;;;3.20;0.90;;;10.70;99.90;;;;;;5022211;28;20606;-75
2024/01/03 10:28:44;;;;;;;5.60;2.10;;;10.80;99.90;;;;;;5037860;28;20472;-75
2024/01/03 10:31:30;;;;;;;4.80;0.90;;;10.90;99.90;;;;;;5036953;28;20452;-74
2024/01/03 10:34:21;;;;;;;2.00;1.07;;;11.20;99.90;;;;;;5023988;28;20587;-75
2024/01/03 10:37:08;;;;;;;5.50;1.13;;;11.40;99.90;;;;;;5031358;28;20526;-72
2024/01/03 10:40:00;;;;;;;2.20;0.80;;;11.40;99.90;;;;;;5029099;28;20527;-75
2024/01/03 10:42:49;;;;;;;1.87;0.97;;;11.40;99.90;;;;;;5022795;28;20470;-75
2024/01/03 10:45:34;;;;;;;1.50;0.70;;;11.20;99.90;;;;;;5030221;28;22308;-75
2024/01/03 10:48:20;;;;;;;2.63;0.90;;;11.10;99.90;;;;;;5021898;28;20448;-74
2024/01/03 10:51:08;;;;;;;1.83;0.83;;;11.00;99.90;;;;;;5032252;28;20486;-75
2024/01/03 10:53:58;;;;;;;1.60;0.60;;;10.90;99.90;;;;;;5038652;28;20788;-74
2024/01/03 10:56:49;;;;;;;2.37;0.80;;;10.80;99.90;;;;;;5040091;28;21018;-74
2024/01/03 10:59:45;;;;;;;2.00;1.00;;;10.80;99.90;;;;;;5040113;28;20461;-73
2024/01/03 11:02:37;;;;;;;2.53;1.37;;;10.90;99.90;;;;;;5028244;28;20460;-74
2024/01/03 11:05:35;;;;;;;3.40;1.00;;;10.80;99.90;;;;;;5023258;28;20557;-72
2024/01/03 11:08:24;;;;;;;3.03;1.57;;;10.90;99.90;;;;;;5022725;28;20463;-74
2024/01/03 11:11:10;;;;;;;1.97;0.80;;;10.90;99.90;;;;;;5030694;28;20450;-74
2024/01/03 11:13:57;;;;;;;3.27;0.97;;;10.80;99.90;;;;;;5041538;28;20529;-73
2024/01/03 11:16:44;;;;;;;2.17;0.97;;;10.90;99.90;;;;;;5028478;28;20451;-73
2024/01/03 11:19:31;;;;;;;5.73;1.00;;;10.90;99.90;;;;;;5023747;28;20456;-74
2024/01/03 11:22:17;;;;;;;4.03;1.00;;;10.90;99.90;;;;;;5025425;28;20465;-75
2024/01/03 11:25:02;;;;;;;3.83;1.33;;;10.90;99.90;;;;;;5021515;28;20503;-73
2024/01/03 11:27:48;;;;;;;6.47;1.27;;;11.00;99.90;;;;;;5026379;28;20487;-73
2024/01/03 11:30:42;;;;;;;5.60;1.83;;;11.00;99.90;;;;;;5032480;28;21005;-73
2024/01/03 11:33:31;;;;;;;5.10;1.00;;;11.00;99.90;;;;;;5033166;28;20426;-73
2024/01/03 11:36:44;;;;;;;8.53;1.50;;;11.00;99.90;;;;;;5037086;28;20456;-73
2024/01/03 11:39:34;;;;;;;3.50;1.30;;;11.00;99.90;;;;;;5026281;28;20444;-75
2024/01/03 11:42:22;;;;;;;6.03;1.00;;;11.00;99.90;;;;;;5027071;28;20467;-75
2024/01/03 11:45:09;;;;;;;5.70;1.57;;;11.00;99.90;;;;;;5033427;28;20512;-74
2024/01/03 11:47:57;;;;;;;11.07;1.70;;;11.00;99.90;;;;;;5035928;28;20443;-73
2024/01/03 11:50:44;;;;;;;10.27;2.30;;;11.10;99.90;;;;;;5033502;28;21004;-73
2024/01/03 11:53:30;;;;;;;5.03;1.20;;;11.10;99.90;;;;;;5052127;28;20962;-73
2024/01/03 11:56:27;;;;;;;12.67;2.57;;;11.20;99.90;;;;;;5048867;28;20434;-74
2024/01/03 11:59:13;;;;;;;8.90;1.70;;;11.20;99.90;;;;;;5045558;28;20562;-74
2024/01/03 12:01:59;;;;;;;4.37;1.27;;;11.10;99.90;;;;;;5048591;28;20430;-74
2024/01/03 12:04:44;;;;;;;7.87;1.70;;;11.10;99.90;;;;;;5048997;28;20446;-74
2024/01/03 12:07:33;;;;;;;9.23;1.93;;;11.10;99.90;;;;;;5049340;28;21142;-74
2024/01/03 12:10:19;;;;;;;4.30;1.73;;;11.10;99.90;;;;;;5048367;28;20429;-74
2024/01/03 12:13:07;;;;;;;8.00;1.60;;;11.10;99.90;;;;;;5046583;28;20780;-74
2024/01/03 12:16:00;;;;;;;7.57;1.93;;;11.10;99.90;;;;;;5051040;28;20812;-74
2024/01/03 12:18:49;;;;;;;13.33;1.63;;;11.10;99.90;;;;;;5050085;28;20478;-74
2024/01/03 12:21:35;;;;;;;5.83;1.50;;;11.10;99.90;;;;;;5048272;28;20870;-74
2024/01/03 12:24:22;;;;;;;9.83;1.67;;;11.10;99.90;;;;;;5049091;28;20466;-74
2024/01/03 12:27:08;;;;;;;8.67;1.80;;;11.10;99.90;;;;;;5047956;28;20478;-74
2024/01/03 12:30:14;;;;;;;6.17;1.60;;;11.10;99.90;;;;;;5050405;28;20949;-74
2024/01/03 12:33:08;;;;;;;10.30;1.47;;;11.00;99.90;;;;;;5030658;28;20531;-74
2024/01/03 12:36:00;;;;;;;7.67;1.33;;;11.00;99.90;;;;;;5047095;28;20469;-74
2024/01/03 12:38:45;;;;;;;4.90;2.20;;;11.10;99.90;;;;;;5046820;28;20836;-73
2024/01/03 12:41:32;;;;;;;4.23;1.30;;;11.00;99.90;;;;;;5039508;28;20426;-74
2024/01/03 12:44:18;;;;;;;5.73;1.70;;;11.00;99.90;;;;;;5047961;28;20454;-74
2024/01/03 12:47:05;;;;;;;4.00;1.33;;;11.00;99.90;;;;;;5042912;28;20476;-74
2024/01/03 12:49:52;;;;;;;4.80;1.50;;;11.00;99.90;;;;;;5052197;28;20426;-74
2024/01/03 12:52:38;;;;;;;8.17;1.83;;;10.90;99.90;;;;;;5045280;28;20429;-74
2024/01/03 12:55:24;;;;;;;3.70;1.13;;;11.00;99.90;;;;;;5048640;28;20465;-74
2024/01/03 12:58:11;;;;;;;3.23;1.10;;;10.90;99.90;;;;;;5039733;28;20968;-74
2024/01/03 13:00:58;;;;;;;3.90;1.30;;;10.90;99.90;;;;;;5045894;28;20435;-73
2024/01/03 13:03:43;;;;;;;5.70;1.60;;;10.80;99.90;;;;;;5047746;28;20435;-73
2024/01/03 13:06:29;;;;;;;7.03;2.20;;;10.80;99.90;;;;;;5046696;28;20560;-73
2024/01/03 13:09:14;;;;;;;7.53;2.00;;;10.80;99.90;;;;;;5040553;28;20435;-73
2024/01/03 13:12:00;;;;;;;7.70;1.70;;;10.70;99.90;;;;;;5035602;28;20977;-74
2024/01/03 13:14:47;;;;;;;8.57;1.77;;;10.70;99.90;;;;;;5033834;28;20579;-73
2024/01/03 13:17:33;;;;;;;6.47;2.47;;;10.70;99.90;;;;;;5045431;28;20790;-73
2024/01/03 13:20:19;;;;;;;11.33;2.27;;;10.60;99.90;;;;;;5048026;28;20429;-74
2024/01/03 13:23:05;;;;;;;2.13;1.00;;;10.60;99.90;;;;;;5033167;28;20454;-73
2024/01/03 13:25:50;;;;;;;21.63;1.27;;;10.30;99.90;;;;;;5040515;28;20501;-74
2024/01/03 13:28:36;;;;;;;3.93;1.20;;;10.00;99.90;;;;;;5041817;28;20444;-74
2024/01/03 13:31:23;;;;;;;3.17;1.23;;;9.90;99.90;;;;;;5045785;28;20439;-73
2024/01/03 13:34:08;;;;;;;4.40;0.90;;;9.90;99.90;;;;;;5040393;28;20823;-74
2024/01/03 13:36:54;;;;;;;9.20;1.43;;;9.80;99.90;;;;;;5050627;28;20542;-73
2024/01/03 13:39:40;;;;;;;4.27;1.60;;;9.80;99.90;;;;;;5050160;28;20429;-73
2024/01/03 13:42:25;;;;;;;4.90;1.60;;;9.80;99.90;;;;;;5039995;28;20470;-73
2024/01/03 13:45:11;;;;;;;4.47;1.83;;;9.80;99.90;;;;;;5047376;28;20461;-74
2024/01/03 13:47:58;;;;;;;3.87;2.20;;;9.80;99.90;;;;;;5048792;28;20989;-73
2024/01/03 13:50:46;;;;;;;6.30;2.50;;;9.80;99.90;;;;;;5049401;28;20830;-73
2024/01/03 13:53:31;;;;;;;9.57;3.07;;;9.90;99.90;;;;;;5048919;28;20447;-73
2024/01/03 13:56:20;;;;;;;7.43;2.00;;;10.00;99.90;;;;;;5049172;28;20426;-74
2024/01/03 13:59:09;;;;;;;5.37;1.80;;;10.10;99.90;;;;;;5048915;28;20426;-74
2024/01/03 14:01:54;;;;;;;7.50;2.33;;;10.10;99.90;;;;;;5048129;28;20680;-73
2024/01/03 14:04:41;;;;;;;8.97;2.07;;;10.20;99.90;;;;;;5042475;28;20850;-74
2024/01/03 14:07:27;;;;;;;6.57;1.40;;;10.20;99.90;;;;;;5041837;28;20474;-74
2024/01/03 14:10:13;;;;;;;5.60;1.80;;;10.20;99.90;;;;;;5050636;28;20444;-73
2024/01/03 14:12:58;;;;;;;5.93;1.77;;;10.30;99.90;;;;;;5050725;28;20433;-73
2024/01/03 14:15:44;;;;;;;5.07;1.27;;;10.40;99.90;;;;;;5040866;28;20603;-74
2024/01/03 14:18:29;;;;;;;5.10;2.10;;;10.40;99.90;;;;;;5046362;28;20438;-73
2024/01/03 14:21:16;;;;;;;6.00;1.97;;;10.40;99.90;;;;;;5051418;28;20438;-74
2024/01/03 14:24:02;;;;;;;10.43;2.20;;;10.40;99.90;;;;;;5046382;28;20470;-74
2024/01/03 14:26:47;;;;;;;5.37;2.30;;;10.40;99.90;;;;;;5043645;28;20841;-73